sensor_id;sensor_type;location;lat;lon;timestamp;pressure;altitude;pressure_sealevel;temperature;humidity
64095;BME280;50353;51.420;5.682;2023-04-05T00:02:19;102153.59;;;4.03;70.66
64095;BME280;50353;51.420;5.682;2023-04-05T00:04:45;102153.50;;;4.12;68.83
64095;BME280;50353;51.420;5.682;2023-04-05T00:07:21;102166.34;;;4.29;67.71
64095;BME280;50353;51.420;5.682;2023-04-05T00:09:47;102166.88;;;4.56;66.48
64095;BME280;50353;51.420;5.682;2023-04-05T00:12:12;102157.72;;;4.21;67.27
64095;BME280;50353;51.420;5.682;2023-04-05T00:14:38;102165.56;;;4.24;67.24
64095;BME280;50353;51.420;5.682;2023-04-05T00:17:03;102165.56;;;4.24;67.51
64095;BME280;50353;51.420;5.682;2023-04-05T00:19:29;102157.97;;;3.99;68.12
64095;BME280;50353;51.420;5.682;2023-04-05T00:21:58;102157.53;;;3.60;68.81
64095;BME280;50353;51.420;5.682;2023-04-05T00:24:23;102161.66;;;3.83;69.06
64095;BME280;50353;51.420;5.682;2023-04-05T00:26:48;102159.75;;;3.99;67.84
64095;BME280;50353;51.420;5.682;2023-04-05T00:29:13;102157.94;;;4.05;67.49
64095;BME280;50353;51.420;5.682;2023-04-05T00:31:39;102154.75;;;3.77;69.00
64095;BME280;50353;51.420;5.682;2023-04-05T00:34:04;102150.25;;;3.88;67.67
64095;BME280;50353;51.420;5.682;2023-04-05T00:36:33;102157.31;;;3.83;69.15
64095;BME280;50353;51.420;5.682;2023-04-05T00:38:58;102151.41;;;3.64;69.31
64095;BME280;50353;51.420;5.682;2023-04-05T00:41:23;102144.56;;;3.51;69.81
64095;BME280;50353;51.420;5.682;2023-04-05T00:43:48;102152.34;;;3.59;69.09
64095;BME280;50353;51.420;5.682;2023-04-05T00:46:14;102144.44;;;3.62;68.95
64095;BME280;50353;51.420;5.682;2023-04-05T00:48:41;102142.59;;;3.73;68.60
64095;BME280;50353;51.420;5.682;2023-04-05T00:51:06;102137.38;;;3.71;68.54
64095;BME280;50353;51.420;5.682;2023-04-05T00:53:36;102145.50;;;3.42;69.92
64095;BME280;50353;51.420;5.682;2023-04-05T00:56:02;102142.88;;;3.44;68.60
64095;BME280;50353;51.420;5.682;2023-04-05T00:58:30;102134.84;;;3.62;68.21
64095;BME280;50353;51.420;5.682;2023-04-05T01:01:17;102138.41;;;3.55;68.77
64095;BME280;50353;51.420;5.682;2023-04-05T01:03:51;102126.22;;;3.52;68.41
64095;BME280;50353;51.420;5.682;2023-04-05T01:12:05;102133.44;;;3.29;68.57
64095;BME280;50353;51.420;5.682;2023-04-05T01:14:31;102128.19;;;3.27;70.61
64095;BME280;50353;51.420;5.682;2023-04-05T01:16:57;102134.34;;;3.21;70.69
64095;BME280;50353;51.420;5.682;2023-04-05T01:19:27;102133.34;;;3.38;69.94
64095;BME280;50353;51.420;5.682;2023-04-05T01:22:06;102141.41;;;3.12;71.03
64095;BME280;50353;51.420;5.682;2023-04-05T01:27:53;102122.88;;;3.41;69.75
64095;BME280;50353;51.420;5.682;2023-04-05T01:30:23;102124.75;;;3.24;69.05
64095;BME280;50353;51.420;5.682;2023-04-05T01:36:05;102126.66;;;3.04;70.47
64095;BME280;50353;51.420;5.682;2023-04-05T01:38:32;102125.97;;;2.82;71.47
64095;BME280;50353;51.420;5.682;2023-04-05T01:41:01;102115.25;;;3.13;69.40
64095;BME280;50353;51.420;5.682;2023-04-05T01:43:26;102123.19;;;3.06;69.90
64095;BME280;50353;51.420;5.682;2023-04-05T01:45:52;102118.81;;;3.06;69.85
64095;BME280;50353;51.420;5.682;2023-04-05T01:48:18;102125.03;;;2.90;70.53
64095;BME280;50353;51.420;5.682;2023-04-05T01:50:43;102117.38;;;2.60;72.20
64095;BME280;50353;51.420;5.682;2023-04-05T01:53:08;102117.28;;;2.79;70.70
64095;BME280;50353;51.420;5.682;2023-04-05T01:55:34;102116.53;;;2.60;71.58
64095;BME280;50353;51.420;5.682;2023-04-05T01:57:59;102105.16;;;2.72;71.43
64095;BME280;50353;51.420;5.682;2023-04-05T02:00:24;102111.72;;;3.22;69.02
64095;BME280;50353;51.420;5.682;2023-04-05T02:02:51;102111.91;;;3.00;68.68
64095;BME280;50353;51.420;5.682;2023-04-05T02:05:17;102108.59;;;2.74;70.08
64095;BME280;50353;51.420;5.682;2023-04-05T02:07:42;102109.50;;;2.68;69.97
64095;BME280;50353;51.420;5.682;2023-04-05T02:10:07;102111.22;;;2.74;70.54
64095;BME280;50353;51.420;5.682;2023-04-05T02:12:33;102106.81;;;2.80;70.35
64095;BME280;50353;51.420;5.682;2023-04-05T02:14:58;102103.50;;;2.58;70.97
64095;BME280;50353;51.420;5.682;2023-04-05T02:17:24;102104.22;;;2.80;71.01
64095;BME280;50353;51.420;5.682;2023-04-05T02:19:49;102109.44;;;2.80;70.40
64095;BME280;50353;51.420;5.682;2023-04-05T02:22:17;102104.44;;;2.46;71.04
64095;BME280;50353;51.420;5.682;2023-04-05T02:24:42;102106.84;;;2.79;69.83
64095;BME280;50353;51.420;5.682;2023-04-05T02:27:07;102098.06;;;2.87;68.83
64095;BME280;50353;51.420;5.682;2023-04-05T02:29:33;102104.41;;;2.48;69.80
64095;BME280;50353;51.420;5.682;2023-04-05T02:31:59;102100.00;;;2.56;69.79
64095;BME280;50353;51.420;5.682;2023-04-05T02:34:24;102098.00;;;2.95;69.11
64095;BME280;50353;51.420;5.682;2023-04-05T02:36:52;102096.50;;;2.63;69.40
64095;BME280;50353;51.420;5.682;2023-04-05T02:39:17;102095.63;;;2.61;70.02
64095;BME280;50353;51.420;5.682;2023-04-05T02:41:43;102100.88;;;2.58;70.59
64095;BME280;50353;51.420;5.682;2023-04-05T02:44:08;102093.91;;;2.60;70.28
64095;BME280;50353;51.420;5.682;2023-04-05T02:46:34;102094.78;;;2.56;70.49
64095;BME280;50353;51.420;5.682;2023-04-05T02:48:59;102092.25;;;2.48;70.64
64095;BME280;50353;51.420;5.682;2023-04-05T02:51:24;102097.44;;;2.51;70.43
64095;BME280;50353;51.420;5.682;2023-04-05T02:53:51;102095.00;;;2.19;72.10
64095;BME280;50353;51.420;5.682;2023-04-05T02:56:17;102094.03;;;2.39;71.52
64095;BME280;50353;51.420;5.682;2023-04-05T02:58:43;102086.25;;;2.34;72.18
64095;BME280;50353;51.420;5.682;2023-04-05T03:01:08;102088.03;;;2.26;73.07
64095;BME280;50353;51.420;5.682;2023-04-05T03:03:33;102083.75;;;2.12;71.82
64095;BME280;50353;51.420;5.682;2023-04-05T03:06:01;102081.91;;;2.30;72.03
64095;BME280;50353;51.420;5.682;2023-04-05T03:08:37;102077.44;;;2.50;71.01
64095;BME280;50353;51.420;5.682;2023-04-05T03:11:04;102077.66;;;2.15;71.92
64095;BME280;50353;51.420;5.682;2023-04-05T03:13:30;102075.91;;;2.14;71.49
64095;BME280;50353;51.420;5.682;2023-04-05T03:15:56;102080.88;;;2.56;70.75
64095;BME280;50353;51.420;5.682;2023-04-05T03:18:21;102073.84;;;2.65;69.95
64095;BME280;50353;51.420;5.682;2023-04-05T03:20:49;102068.13;;;2.08;71.43
64095;BME280;50353;51.420;5.682;2023-04-05T03:23:21;102071.53;;;2.24;71.36
64095;BME280;50353;51.420;5.682;2023-04-05T03:25:53;102068.06;;;2.18;70.68
64095;BME280;50353;51.420;5.682;2023-04-05T03:28:19;102062.81;;;2.28;71.48
64095;BME280;50353;51.420;5.682;2023-04-05T03:30:44;102070.72;;;2.08;72.58
64095;BME280;50353;51.420;5.682;2023-04-05T03:33:09;102073.34;;;2.06;73.46
64095;BME280;50353;51.420;5.682;2023-04-05T03:35:35;102063.84;;;1.86;73.50
64095;BME280;50353;51.420;5.682;2023-04-05T03:38:01;102076.09;;;1.67;74.58
64095;BME280;50353;51.420;5.682;2023-04-05T03:40:26;102062.94;;;1.98;74.14
64095;BME280;50353;51.420;5.682;2023-04-05T03:42:51;102055.91;;;2.14;72.86
64095;BME280;50353;51.420;5.682;2023-04-05T03:45:17;102056.06;;;1.76;74.03
64095;BME280;50353;51.420;5.682;2023-04-05T03:47:43;102063.88;;;1.85;72.46
64095;BME280;50353;51.420;5.682;2023-04-05T03:50:08;102066.53;;;1.69;73.07
64095;BME280;50353;51.420;5.682;2023-04-05T03:52:34;102051.66;;;1.99;71.99
64095;BME280;50353;51.420;5.682;2023-04-05T03:55:00;102051.63;;;2.01;71.36
64095;BME280;50353;51.420;5.682;2023-04-05T03:57:25;102048.25;;;1.79;72.93
64095;BME280;50353;51.420;5.682;2023-04-05T03:59:53;102059.53;;;1.81;72.74
64095;BME280;50353;51.420;5.682;2023-04-05T04:02:18;102049.97;;;1.86;72.53
64095;BME280;50353;51.420;5.682;2023-04-05T04:04:43;102053.44;;;1.86;72.28
64095;BME280;50353;51.420;5.682;2023-04-05T04:07:09;102048.28;;;1.77;71.78
64095;BME280;50353;51.420;5.682;2023-04-05T04:09:35;102049.22;;;1.50;73.01
64095;BME280;50353;51.420;5.682;2023-04-05T04:12:00;102040.53;;;1.57;73.37
64095;BME280;50353;51.420;5.682;2023-04-05T04:14:26;102034.41;;;1.71;72.27
64095;BME280;50353;51.420;5.682;2023-04-05T04:16:51;102036.00;;;1.99;71.56
64095;BME280;50353;51.420;5.682;2023-04-05T04:19:17;102027.25;;;2.13;70.30
64095;BME280;50353;51.420;5.682;2023-04-05T04:21:43;102037.81;;;1.76;71.15
64095;BME280;50353;51.420;5.682;2023-04-05T04:24:16;102041.34;;;1.61;71.96
64095;BME280;50353;51.420;5.682;2023-04-05T04:26:46;102039.59;;;1.67;72.81
64095;BME280;50353;51.420;5.682;2023-04-05T04:29:13;102037.75;;;2.00;71.17
64095;BME280;50353;51.420;5.682;2023-04-05T04:31:43;102036.97;;;1.74;72.26
64095;BME280;50353;51.420;5.682;2023-04-05T04:34:13;102041.38;;;1.56;73.13
64095;BME280;50353;51.420;5.682;2023-04-05T04:36:39;102044.81;;;1.72;72.14
64095;BME280;50353;51.420;5.682;2023-04-05T04:39:07;102044.88;;;1.46;72.55
64095;BME280;50353;51.420;5.682;2023-04-05T04:41:32;102048.38;;;1.42;73.78
64095;BME280;50353;51.420;5.682;2023-04-05T04:43:59;102043.13;;;1.49;73.19
64095;BME280;50353;51.420;5.682;2023-04-05T04:46:29;102041.44;;;1.38;73.75
64095;BME280;50353;51.420;5.682;2023-04-05T04:49:01;102044.00;;;1.53;72.74
64095;BME280;50353;51.420;5.682;2023-04-05T04:51:33;102041.38;;;1.50;72.27
64095;BME280;50353;51.420;5.682;2023-04-05T04:53:58;102038.88;;;1.28;73.24
64095;BME280;50353;51.420;5.682;2023-04-05T04:56:24;102041.44;;;1.41;73.69
64095;BME280;50353;51.420;5.682;2023-04-05T04:58:49;102046.63;;;1.45;74.25
64095;BME280;50353;51.420;5.682;2023-04-05T05:01:14;102049.22;;;1.55;74.92
64095;BME280;50353;51.420;5.682;2023-04-05T05:03:41;102040.56;;;1.43;74.48
64095;BME280;50353;51.420;5.682;2023-04-05T05:06:06;102044.97;;;1.12;75.30
64095;BME280;50353;51.420;5.682;2023-04-05T05:08:32;102038.72;;;1.70;73.49
64095;BME280;50353;51.420;5.682;2023-04-05T05:10:57;102050.13;;;1.40;73.95
64095;BME280;50353;51.420;5.682;2023-04-05T05:13:23;102041.44;;;1.41;74.80
64095;BME280;50353;51.420;5.682;2023-04-05T05:15:48;102048.44;;;1.12;75.43
64095;BME280;50353;51.420;5.682;2023-04-05T05:18:13;102046.69;;;1.17;75.89
64095;BME280;50353;51.420;5.682;2023-04-05T05:20:40;102046.59;;;1.55;75.77
64095;BME280;50353;51.420;5.682;2023-04-05T05:23:05;102045.78;;;1.39;76.68
64095;BME280;50353;51.420;5.682;2023-04-05T05:25:30;102044.06;;;1.30;76.10
64095;BME280;50353;51.420;5.682;2023-04-05T05:27:56;102045.78;;;1.35;76.47
64095;BME280;50353;51.420;5.682;2023-04-05T05:30:21;102050.16;;;1.27;75.69
64095;BME280;50353;51.420;5.682;2023-04-05T05:32:47;102048.44;;;1.22;75.84
64095;BME280;50353;51.420;5.682;2023-04-05T05:35:12;102050.13;;;1.40;75.75
64095;BME280;50353;51.420;5.682;2023-04-05T05:37:38;102052.69;;;1.52;74.33
64095;BME280;50353;51.420;5.682;2023-04-05T05:40:03;102050.06;;;1.55;74.52
64095;BME280;50353;51.420;5.682;2023-04-05T05:42:29;102047.53;;;1.30;75.34
64095;BME280;50353;51.420;5.682;2023-04-05T05:44:57;102046.66;;;1.42;75.72
64095;BME280;50353;51.420;5.682;2023-04-05T05:47:22;102042.19;;;1.77;75.31
64095;BME280;50353;51.420;5.682;2023-04-05T05:49:48;102045.53;;;2.05;74.35
64095;BME280;50353;51.420;5.682;2023-04-05T05:52:16;102036.81;;;2.08;74.49
64095;BME280;50353;51.420;5.682;2023-04-05T05:54:41;102037.53;;;2.38;73.51
64095;BME280;50353;51.420;5.682;2023-04-05T05:57:06;102042.56;;;2.58;73.74
64095;BME280;50353;51.420;5.682;2023-04-05T05:59:32;102042.34;;;2.87;72.74
64095;BME280;50353;51.420;5.682;2023-04-05T06:01:57;102038.56;;;3.19;72.69
64095;BME280;50353;51.420;5.682;2023-04-05T06:04:22;102034.06;;;3.33;71.23
64095;BME280;50353;51.420;5.682;2023-04-05T06:06:47;102036.53;;;3.47;71.20
64095;BME280;50353;51.420;5.682;2023-04-05T06:09:14;102036.03;;;3.89;70.08
64095;BME280;50353;51.420;5.682;2023-04-05T06:11:41;102048.88;;;4.06;70.09
64095;BME280;50353;51.420;5.682;2023-04-05T06:14:06;102040.53;;;4.42;68.96
64095;BME280;50353;51.420;5.682;2023-04-05T06:16:32;102034.34;;;4.49;68.41
64095;BME280;50353;51.420;5.682;2023-04-05T06:18:59;102040.69;;;4.88;66.41
64095;BME280;50353;51.420;5.682;2023-04-05T06:21:24;102038.38;;;4.68;65.59
64095;BME280;50353;51.420;5.682;2023-04-05T06:23:50;102040.63;;;5.38;63.86
64095;BME280;50353;51.420;5.682;2023-04-05T06:26:20;102032.34;;;5.60;62.05
64095;BME280;50353;51.420;5.682;2023-04-05T06:28:47;102032.53;;;5.93;61.81
64095;BME280;50353;51.420;5.682;2023-04-05T06:31:14;102030.41;;;5.70;62.29
64095;BME280;50353;51.420;5.682;2023-04-05T06:33:40;102042.09;;;5.53;61.87
64095;BME280;50353;51.420;5.682;2023-04-05T06:36:06;102031.75;;;5.89;61.08
64095;BME280;50353;51.420;5.682;2023-04-05T06:38:31;102025.88;;;6.20;61.01
64095;BME280;50353;51.420;5.682;2023-04-05T06:40:56;102028.22;;;6.31;59.56
64095;BME280;50353;51.420;5.682;2023-04-05T06:43:22;102029.63;;;6.48;60.38
64095;BME280;50353;51.420;5.682;2023-04-05T06:45:47;102033.09;;;6.84;58.45
64095;BME280;50353;51.420;5.682;2023-04-05T06:48:12;102030.13;;;6.98;58.53
64095;BME280;50353;51.420;5.682;2023-04-05T06:50:37;102037.56;;;6.45;58.45
64095;BME280;50353;51.420;5.682;2023-04-05T06:53:04;102033.91;;;6.52;60.18
64095;BME280;50353;51.420;5.682;2023-04-05T06:55:31;102036.28;;;6.61;59.24
64095;BME280;50353;51.420;5.682;2023-04-05T06:57:56;102033.09;;;7.19;58.44
64095;BME280;50353;51.420;5.682;2023-04-05T07:00:22;102032.91;;;7.25;57.72
64095;BME280;50353;51.420;5.682;2023-04-05T07:02:47;102033.75;;;7.58;55.76
64095;BME280;50353;51.420;5.682;2023-04-05T07:05:13;102035.22;;;8.27;53.39
64095;BME280;50353;51.420;5.682;2023-04-05T07:07:39;102042.00;;;7.77;55.48
64095;BME280;50353;51.420;5.682;2023-04-05T07:10:07;102037.78;;;8.00;57.13
64095;BME280;50353;51.420;5.682;2023-04-05T07:12:32;102041.16;;;8.05;55.06
64095;BME280;50353;51.420;5.682;2023-04-05T07:14:58;102042.50;;;8.75;53.05
64095;BME280;50353;51.420;5.682;2023-04-05T07:17:23;102039.00;;;8.48;54.10
64095;BME280;50353;51.420;5.682;2023-04-05T07:19:49;102037.91;;;9.07;51.77
64095;BME280;50353;51.420;5.682;2023-04-05T07:22:17;102030.59;;;9.16;52.58
64095;BME280;50353;51.420;5.682;2023-04-05T07:24:44;102034.59;;;9.27;51.22
64095;BME280;50353;51.420;5.682;2023-04-05T07:27:10;102040.19;;;9.18;51.92
64095;BME280;50353;51.420;5.682;2023-04-05T07:29:35;102046.72;;;9.57;51.34
64095;BME280;50353;51.420;5.682;2023-04-05T07:32:05;102044.19;;;9.77;50.25
64095;BME280;50353;51.420;5.682;2023-04-05T07:34:30;102042.25;;;10.06;51.34
64095;BME280;50353;51.420;5.682;2023-04-05T07:36:55;102038.59;;;10.09;51.10
64095;BME280;50353;51.420;5.682;2023-04-05T07:39:20;102039.13;;;9.95;51.38
64095;BME280;50353;51.420;5.682;2023-04-05T07:41:46;102037.63;;;10.11;50.61
64095;BME280;50353;51.420;5.682;2023-04-05T07:44:11;102033.28;;;10.32;49.19
64095;BME280;50353;51.420;5.682;2023-04-05T07:46:36;102039.78;;;10.47;49.36
64095;BME280;50353;51.420;5.682;2023-04-05T07:49:03;102045.56;;;10.35;48.57
64095;BME280;50353;51.420;5.682;2023-04-05T07:51:28;102038.91;;;10.69;48.92
64095;BME280;50353;51.420;5.682;2023-04-05T07:53:53;102040.91;;;10.85;46.76
64095;BME280;50353;51.420;5.682;2023-04-05T07:56:19;102039.75;;;11.31;48.43
64095;BME280;50353;51.420;5.682;2023-04-05T07:58:44;102036.22;;;10.91;47.94
64095;BME280;50353;51.420;5.682;2023-04-05T08:01:10;102038.97;;;10.45;48.42
64095;BME280;50353;51.420;5.682;2023-04-05T08:03:36;102034.16;;;10.98;45.72
64095;BME280;50353;51.420;5.682;2023-04-05T08:06:15;102041.16;;;11.40;45.20
64095;BME280;50353;51.420;5.682;2023-04-05T08:08:42;102029.13;;;11.33;44.71
64095;BME280;50353;51.420;5.682;2023-04-05T08:11:08;102034.00;;;11.42;44.45
64095;BME280;50353;51.420;5.682;2023-04-05T08:13:33;102039.13;;;11.66;45.83
64095;BME280;50353;51.420;5.682;2023-04-05T08:16:00;102034.03;;;11.01;47.07
64095;BME280;50353;51.420;5.682;2023-04-05T08:18:26;102033.06;;;11.83;44.17
64095;BME280;50353;51.420;5.682;2023-04-05T08:20:53;102030.09;;;12.46;42.31
64095;BME280;50353;51.420;5.682;2023-04-05T08:23:18;102034.06;;;12.18;43.95
64095;BME280;50353;51.420;5.682;2023-04-05T08:25:44;102037.94;;;12.67;41.92
64095;BME280;50353;51.420;5.682;2023-04-05T08:28:09;102031.59;;;12.52;42.88
64095;BME280;50353;51.420;5.682;2023-04-05T08:30:35;102027.69;;;12.59;41.76
64095;BME280;50353;51.420;5.682;2023-04-05T08:33:00;102032.22;;;13.10;40.30
64095;BME280;50353;51.420;5.682;2023-04-05T08:35:26;102035.00;;;12.54;42.56
64095;BME280;50353;51.420;5.682;2023-04-05T08:37:51;102033.16;;;12.20;43.48
64095;BME280;50353;51.420;5.682;2023-04-05T08:40:16;102032.59;;;12.49;41.09
64095;BME280;50353;51.420;5.682;2023-04-05T08:42:50;102029.47;;;12.41;43.37
64095;BME280;50353;51.420;5.682;2023-04-05T08:45:16;102033.00;;;13.29;41.58
64095;BME280;50353;51.420;5.682;2023-04-05T08:47:44;102030.53;;;13.60;39.40
64095;BME280;50353;51.420;5.682;2023-04-05T08:50:10;102031.59;;;13.89;39.19
64095;BME280;50353;51.420;5.682;2023-04-05T08:52:38;102032.91;;;13.48;38.67
64095;BME280;50353;51.420;5.682;2023-04-05T08:55:04;102026.78;;;13.96;37.68
64095;BME280;50353;51.420;5.682;2023-04-05T08:57:31;102027.31;;;13.86;38.38
64095;BME280;50353;51.420;5.682;2023-04-05T08:59:58;102027.47;;;13.67;40.49
64095;BME280;50353;51.420;5.682;2023-04-05T09:02:25;102021.81;;;14.22;38.54
64095;BME280;50353;51.420;5.682;2023-04-05T09:04:51;102012.06;;;14.22;39.25
64095;BME280;50353;51.420;5.682;2023-04-05T09:07:18;102027.97;;;14.38;39.15
64095;BME280;50353;51.420;5.682;2023-04-05T09:09:52;102020.41;;;14.46;37.65
64095;BME280;50353;51.420;5.682;2023-04-05T09:12:20;102027.13;;;14.84;37.15
64095;BME280;50353;51.420;5.682;2023-04-05T09:14:47;102024.56;;;14.82;37.71
64095;BME280;50353;51.420;5.682;2023-04-05T09:17:16;102022.16;;;13.83;39.33
64095;BME280;50353;51.420;5.682;2023-04-05T09:19:41;102019.94;;;14.24;37.82
64095;BME280;50353;51.420;5.682;2023-04-05T09:22:08;102018.75;;;14.60;36.86
64095;BME280;50353;51.420;5.682;2023-04-05T09:24:39;102025.59;;;13.85;38.33
64095;BME280;50353;51.420;5.682;2023-04-05T09:27:08;102014.97;;;14.80;35.42
64095;BME280;50353;51.420;5.682;2023-04-05T09:29:33;102023.41;;;13.27;38.85
64095;BME280;50353;51.420;5.682;2023-04-05T09:32:03;102014.63;;;14.08;37.36
64095;BME280;50353;51.420;5.682;2023-04-05T09:34:30;102008.69;;;14.81;36.77
64095;BME280;50353;51.420;5.682;2023-04-05T09:37:00;102003.91;;;14.56;36.13
64095;BME280;50353;51.420;5.682;2023-04-05T09:39:30;102008.50;;;14.84;34.71
64095;BME280;50353;51.420;5.682;2023-04-05T09:42:11;102004.56;;;15.06;35.26
64095;BME280;50353;51.420;5.682;2023-04-05T09:44:53;102013.16;;;14.80;33.99
64095;BME280;50353;51.420;5.682;2023-04-05T09:47:24;101992.31;;;15.46;32.36
64095;BME280;50353;51.420;5.682;2023-04-05T09:49:51;101999.69;;;15.55;33.65
64095;BME280;50353;51.420;5.682;2023-04-05T09:52:24;102000.41;;;15.45;31.98
64095;BME280;50353;51.420;5.682;2023-04-05T09:54:54;101996.44;;;14.93;33.16
64095;BME280;50353;51.420;5.682;2023-04-05T09:57:25;102000.63;;;14.97;33.91
64095;BME280;50353;51.420;5.682;2023-04-05T09:59:52;101998.00;;;15.40;32.36
64095;BME280;50353;51.420;5.682;2023-04-05T10:02:18;102000.13;;;14.76;32.08
64095;BME280;50353;51.420;5.682;2023-04-05T10:04:45;101998.56;;;15.02;32.62
64095;BME280;50353;51.420;5.682;2023-04-05T10:07:14;101986.75;;;16.20;30.83
64095;BME280;50353;51.420;5.682;2023-04-05T10:09:41;101995.09;;;16.01;30.27
64095;BME280;50353;51.420;5.682;2023-04-05T10:12:07;101982.84;;;16.26;30.36
64095;BME280;50353;51.420;5.682;2023-04-05T10:14:36;101977.88;;;16.19;30.88
64095;BME280;50353;51.420;5.682;2023-04-05T10:17:13;101980.34;;;14.80;31.84
64095;BME280;50353;51.420;5.682;2023-04-05T10:20:04;101985.00;;;14.76;34.92
64095;BME280;50353;51.420;5.682;2023-04-05T10:22:52;101974.69;;;15.87;31.55
64095;BME280;50353;51.420;5.682;2023-04-05T10:28:03;101979.59;;;15.79;30.35
64095;BME280;50353;51.420;5.682;2023-04-05T10:30:34;101973.25;;;16.09;31.21
64095;BME280;50353;51.420;5.682;2023-04-05T10:33:29;101973.22;;;15.81;31.04
64095;BME280;50353;51.420;5.682;2023-04-05T10:41:13;101971.69;;;15.77;29.20
64095;BME280;50353;51.420;5.682;2023-04-05T10:43:39;101962.06;;;16.03;29.70
64095;BME280;50353;51.420;5.682;2023-04-05T10:46:06;101964.16;;;15.42;30.77
64095;BME280;50353;51.420;5.682;2023-04-05T10:49:08;101960.81;;;15.95;31.46
64095;BME280;50353;51.420;5.682;2023-04-05T10:51:36;101970.38;;;15.70;31.37
64095;BME280;50353;51.420;5.682;2023-04-05T10:54:02;101962.13;;;15.46;31.21
64095;BME280;50353;51.420;5.682;2023-04-05T10:56:27;101952.53;;;15.99;32.94
64095;BME280;50353;51.420;5.682;2023-04-05T10:58:54;101956.31;;;14.81;31.71
64095;BME280;50353;51.420;5.682;2023-04-05T11:01:20;101951.47;;;14.58;31.35
64095;BME280;50353;51.420;5.682;2023-04-05T11:03:48;101953.44;;;14.84;31.80
64095;BME280;50353;51.420;5.682;2023-04-05T11:06:23;101949.84;;;15.58;30.50
64095;BME280;50353;51.420;5.682;2023-04-05T11:08:54;101944.53;;;15.29;29.91
64095;BME280;50353;51.420;5.682;2023-04-05T11:11:21;101945.06;;;16.32;29.60
64095;BME280;50353;51.420;5.682;2023-04-05T11:13:52;101944.09;;;15.93;30.68
64095;BME280;50353;51.420;5.682;2023-04-05T11:16:18;101938.09;;;16.69;29.41
64095;BME280;50353;51.420;5.682;2023-04-05T11:18:48;101940.03;;;16.80;28.12
64095;BME280;50353;51.420;5.682;2023-04-05T11:21:24;101932.63;;;17.48;28.70
64095;BME280;50353;51.420;5.682;2023-04-05T11:24:07;101937.56;;;17.29;27.13
64095;BME280;50353;51.420;5.682;2023-04-05T11:26:54;101930.97;;;17.58;27.76
64095;BME280;50353;51.420;5.682;2023-04-05T11:29:49;101936.38;;;17.33;27.79
64095;BME280;50353;51.420;5.682;2023-04-05T11:32:15;101929.75;;;17.26;28.35
64095;BME280;50353;51.420;5.682;2023-04-05T11:34:41;101926.44;;;16.70;27.41
64095;BME280;50353;51.420;5.682;2023-04-05T11:37:07;101926.31;;;17.36;28.48
64095;BME280;50353;51.420;5.682;2023-04-05T11:39:32;101921.88;;;17.61;26.92
64095;BME280;50353;51.420;5.682;2023-04-05T11:42:11;101922.81;;;16.59;29.10
64095;BME280;50353;51.420;5.682;2023-04-05T11:44:45;101924.78;;;16.95;28.51
64095;BME280;50353;51.420;5.682;2023-04-05T11:47:11;101915.84;;;16.03;29.70
64095;BME280;50353;51.420;5.682;2023-04-05T11:49:37;101909.34;;;16.60;27.34
64095;BME280;50353;51.420;5.682;2023-04-05T11:52:29;101906.66;;;14.80;30.21
64095;BME280;50353;51.420;5.682;2023-04-05T11:54:54;101906.75;;;16.33;28.69
64095;BME280;50353;51.420;5.682;2023-04-05T11:57:21;101903.50;;;16.15;27.53
64095;BME280;50353;51.420;5.682;2023-04-05T11:59:51;101897.69;;;16.48;28.13
64095;BME280;50353;51.420;5.682;2023-04-05T12:02:17;101889.81;;;15.79;31.59
64095;BME280;50353;51.420;5.682;2023-04-05T12:04:42;101893.44;;;16.05;30.24
64095;BME280;50353;51.420;5.682;2023-04-05T12:07:18;101884.94;;;15.44;29.76
64095;BME280;50353;51.420;5.682;2023-04-05T12:10:09;101885.66;;;16.02;32.34
64095;BME280;50353;51.420;5.682;2023-04-05T12:12:39;101878.38;;;15.50;28.58
64095;BME280;50353;51.420;5.682;2023-04-05T12:15:06;101885.22;;;16.09;29.14
64095;BME280;50353;51.420;5.682;2023-04-05T12:17:49;101867.72;;;15.50;29.97
64095;BME280;50353;51.420;5.682;2023-04-05T12:20:19;101874.22;;;16.53;29.87
64095;BME280;50353;51.420;5.682;2023-04-05T12:22:46;101865.91;;;16.97;27.65
64095;BME280;50353;51.420;5.682;2023-04-05T12:25:13;101862.13;;;17.12;29.14
64095;BME280;50353;51.420;5.682;2023-04-05T12:27:39;101860.97;;;17.53;27.66
64095;BME280;50353;51.420;5.682;2023-04-05T12:33:00;101874.44;;;16.50;28.46
64095;BME280;50353;51.420;5.682;2023-04-05T12:35:32;101869.41;;;16.59;29.28
64095;BME280;50353;51.420;5.682;2023-04-05T12:38:03;101860.66;;;15.07;33.05
64095;BME280;50353;51.420;5.682;2023-04-05T12:40:34;101850.75;;;15.65;31.34
64095;BME280;50353;51.420;5.682;2023-04-05T12:43:01;101854.69;;;15.45;31.72
64095;BME280;50353;51.420;5.682;2023-04-05T12:45:28;101859.38;;;16.49;31.17
64095;BME280;50353;51.420;5.682;2023-04-05T12:47:57;101848.31;;;15.48;31.29
64095;BME280;50353;51.420;5.682;2023-04-05T12:50:30;101857.06;;;14.04;33.34
64095;BME280;50353;51.420;5.682;2023-04-05T12:52:56;101842.31;;;15.02;33.34
64095;BME280;50353;51.420;5.682;2023-04-05T12:55:22;101849.13;;;15.90;29.03
64095;BME280;50353;51.420;5.682;2023-04-05T12:57:49;101847.16;;;16.07;29.69
64095;BME280;50353;51.420;5.682;2023-04-05T13:00:16;101848.91;;;16.33;30.79
64095;BME280;50353;51.420;5.682;2023-04-05T13:02:41;101838.78;;;17.03;30.18
64095;BME280;50353;51.420;5.682;2023-04-05T13:05:07;101834.09;;;15.89;30.96
64095;BME280;50353;51.420;5.682;2023-04-05T13:07:32;101830.59;;;16.01;31.52
64095;BME280;50353;51.420;5.682;2023-04-05T13:09:58;101836.94;;;16.13;31.68
64095;BME280;50353;51.420;5.682;2023-04-05T13:12:23;101829.09;;;14.72;31.08
64095;BME280;50353;51.420;5.682;2023-04-05T13:14:48;101825.81;;;16.07;28.75
64095;BME280;50353;51.420;5.682;2023-04-05T13:17:14;101823.06;;;15.26;30.98
64095;BME280;50353;51.420;5.682;2023-04-05T13:19:39;101822.19;;;16.20;29.72
64095;BME280;50353;51.420;5.682;2023-04-05T13:22:04;101823.75;;;15.97;30.77